createdAt,value
2017-06-02T00:00:28.519Z,11.30
2017-06-02T00:02:57.654Z,11.10
2017-06-02T00:05:26.047Z,11.00
2017-06-02T00:07:54.396Z,11.10
2017-06-02T00:10:22.732Z,11.20
2017-06-02T00:12:51.853Z,11.10
2017-06-02T00:15:20.189Z,11.00
2017-06-02T00:17:48.543Z,11.00
2017-06-02T00:20:16.894Z,11.00
2017-06-02T00:22:45.980Z,11.00
2017-06-02T00:25:14.309Z,10.90
2017-06-02T00:27:42.701Z,11.00
2017-06-02T00:30:11.033Z,11.00
2017-06-02T00:32:40.133Z,11.00
2017-06-02T00:35:08.491Z,10.90
2017-06-02T00:37:37.564Z,11.00
2017-06-02T00:40:06.665Z,10.90
2017-06-02T00:42:35.752Z,10.90
2017-06-02T00:45:04.164Z,10.80
2017-06-02T00:47:32.486Z,10.80
2017-06-02T00:50:00.838Z,10.90
2017-06-02T00:52:29.938Z,10.80
2017-06-02T00:54:58.281Z,10.70
2017-06-02T00:57:26.606Z,10.70
2017-06-02T00:59:55.032Z,10.70
2017-06-02T01:02:23.344Z,10.70
2017-06-02T01:04:51.669Z,10.70
2017-06-02T01:07:20.021Z,10.60
2017-06-02T01:09:49.114Z,10.60
2017-06-02T01:12:18.213Z,10.60
2017-06-02T01:14:46.552Z,10.50
2017-06-02T01:17:14.933Z,10.50
2017-06-02T01:19:43.276Z,10.50
2017-06-02T01:22:12.403Z,10.40
2017-06-02T01:24:40.741Z,10.60
2017-06-02T01:27:09.058Z,10.40
2017-06-02T01:29:37.406Z,10.40
2017-06-02T01:32:06.476Z,10.30
2017-06-02T01:34:34.836Z,10.20
2017-06-02T01:37:03.157Z,10.40
2017-06-02T01:39:31.473Z,10.40
2017-06-02T01:42:00.676Z,10.20
2017-06-02T01:44:28.996Z,10.20
2017-06-02T01:46:57.345Z,10.30
2017-06-02T01:49:25.674Z,10.20
2017-06-02T01:51:54.813Z,10.10
2017-06-02T01:54:23.165Z,10.00
2017-06-02T01:56:51.525Z,10.10
2017-06-02T01:59:19.850Z,10.10
2017-06-02T02:01:48.960Z,10.10
2017-06-02T02:04:17.313Z,10.10
2017-06-02T02:06:45.636Z,10.00
2017-06-02T02:09:13.989Z,10.10
2017-06-02T02:11:43.061Z,9.90
2017-06-02T02:14:11.384Z,9.80
2017-06-02T02:16:39.713Z,10.00
2017-06-02T02:19:08.029Z,10.00
2017-06-02T02:21:37.367Z,10.00
2017-06-02T02:24:05.703Z,9.90
2017-06-02T02:26:34.101Z,10.00
2017-06-02T02:29:02.416Z,9.90
2017-06-02T02:31:31.522Z,9.90
2017-06-02T02:33:59.881Z,9.80
2017-06-02T02:36:28.194Z,9.80
2017-06-02T02:38:56.505Z,9.70
2017-06-02T02:41:25.604Z,9.80
2017-06-02T02:43:54.717Z,9.70
2017-06-02T02:46:23.020Z,9.60
2017-06-02T02:48:51.369Z,9.70
2017-06-02T02:51:20.481Z,9.60
2017-06-02T02:53:48.819Z,9.60
2017-06-02T02:56:17.169Z,9.60
2017-06-02T02:58:45.498Z,9.60
2017-06-02T03:01:14.610Z,9.40
2017-06-02T03:03:42.921Z,9.30
2017-06-02T03:06:11.267Z,9.40
2017-06-02T03:08:39.596Z,9.40
2017-06-02T03:11:08.684Z,9.50
2017-06-02T03:13:37.021Z,9.40
2017-06-02T03:16:06.099Z,9.40
2017-06-02T03:18:34.430Z,9.30
2017-06-02T03:21:02.740Z,9.50
2017-06-02T03:23:31.052Z,9.50
2017-06-02T03:25:59.393Z,9.50
2017-06-02T03:28:28.305Z,9.50
2017-06-02T03:30:56.637Z,9.50
2017-06-02T03:33:25.728Z,9.60
2017-06-02T03:35:54.923Z,9.60
2017-06-02T03:38:23.227Z,9.50
2017-06-02T03:40:51.536Z,9.50
2017-06-02T03:43:19.923Z,9.60
2017-06-02T03:45:48.240Z,9.60
2017-06-02T03:48:16.544Z,9.70
2017-06-02T03:50:44.890Z,9.60
2017-06-02T03:53:13.993Z,9.80
2017-06-02T03:55:42.319Z,9.70
2017-06-02T03:58:10.647Z,9.70
2017-06-02T04:00:38.946Z,9.70
2017-06-02T04:03:08.049Z,9.80
2017-06-02T04:05:37.132Z,9.80
2017-06-02T04:08:06.263Z,9.80
2017-06-02T04:10:34.565Z,9.80
2017-06-02T04:13:03.696Z,10.00
2017-06-02T04:15:32.031Z,10.00
2017-06-02T04:18:00.349Z,10.00
2017-06-02T04:20:29.469Z,10.10
2017-06-02T04:22:58.576Z,10.20
2017-06-02T04:25:26.922Z,10.20
2017-06-02T04:27:55.266Z,10.30
2017-06-02T04:30:23.759Z,10.30
2017-06-02T04:32:52.842Z,10.50
2017-06-02T04:35:21.925Z,10.70
2017-06-02T04:37:50.270Z,10.60
2017-06-02T04:40:18.589Z,10.80
2017-06-02T04:42:47.681Z,11.10
2017-06-02T04:45:16.047Z,11.10
2017-06-02T04:47:44.351Z,11.20
2017-06-02T04:50:12.681Z,11.40
2017-06-02T04:52:41.778Z,11.60
2017-06-02T04:55:10.094Z,11.50
2017-06-02T04:57:38.404Z,11.70
2017-06-02T05:00:06.764Z,11.80
2017-06-02T05:02:35.886Z,12.00
2017-06-02T05:05:04.211Z,11.90
2017-06-02T05:07:32.565Z,12.10
2017-06-02T05:10:00.899Z,12.30
2017-06-02T05:12:30.024Z,12.40
2017-06-02T05:14:58.356Z,12.30
2017-06-02T05:17:27.455Z,12.50
2017-06-02T05:19:55.818Z,12.50
2017-06-02T05:22:24.957Z,12.70
2017-06-02T05:24:53.363Z,12.70
2017-06-02T05:27:21.724Z,12.80
2017-06-02T05:29:50.072Z,12.90
2017-06-02T05:32:19.161Z,13.10
2017-06-02T05:34:48.264Z,13.30
2017-06-02T05:37:16.626Z,13.20
2017-06-02T05:39:44.938Z,13.40
2017-06-02T05:42:14.061Z,13.60
2017-06-02T05:44:42.401Z,13.60
2017-06-02T05:47:10.739Z,13.80
2017-06-02T05:49:39.113Z,13.80
2017-06-02T05:52:08.251Z,14.10
2017-06-02T05:54:36.634Z,14.10
2017-06-02T05:57:05.757Z,14.20
2017-06-02T05:59:34.181Z,14.30
2017-06-02T06:02:03.293Z,14.50
2017-06-02T06:04:31.638Z,14.50
2017-06-02T06:07:00.750Z,15.00
2017-06-02T06:09:29.090Z,14.90
2017-06-02T06:11:58.568Z,15.10
2017-06-02T06:14:26.900Z,15.00
2017-06-02T06:16:55.997Z,15.40
2017-06-02T06:19:24.404Z,15.40
2017-06-02T06:21:53.642Z,15.60
2017-06-02T06:24:21.993Z,15.60
2017-06-02T06:26:50.317Z,15.70
2017-06-02T06:29:18.649Z,15.90
2017-06-02T06:31:47.756Z,16.10
2017-06-02T06:34:16.076Z,16.00
2017-06-02T06:36:45.187Z,16.30
2017-06-02T06:39:13.509Z,16.30
2017-06-02T06:41:42.613Z,16.70
2017-06-02T06:44:10.932Z,16.60
2017-06-02T06:46:40.056Z,16.90
2017-06-02T06:49:08.370Z,16.80
2017-06-02T06:51:37.458Z,17.10
2017-06-02T06:54:05.804Z,17.00
2017-06-02T06:56:34.165Z,17.10
2017-06-02T06:59:02.483Z,17.20
2017-06-02T07:01:31.561Z,17.30
2017-06-02T07:03:59.901Z,17.30
2017-06-02T07:06:29.001Z,17.50
2017-06-02T07:08:57.376Z,17.50
2017-06-02T07:11:26.488Z,17.80
2017-06-02T07:13:54.805Z,19.30
2017-06-02T07:16:23.900Z,17.90
2017-06-02T07:18:52.255Z,17.90
2017-06-02T07:21:21.338Z,18.20
2017-06-02T07:23:49.704Z,18.10
2017-06-02T07:26:18.018Z,18.30
2017-06-02T07:28:46.335Z,18.40
2017-06-02T07:31:15.436Z,18.50
2017-06-02T07:33:44.015Z,18.50
2017-06-02T07:36:12.328Z,18.80
2017-06-02T07:38:40.645Z,19.00
2017-06-02T07:41:09.768Z,19.20
2017-06-02T07:43:38.088Z,19.20
2017-06-02T07:46:06.544Z,19.30
2017-06-02T07:48:35.666Z,19.40
2017-06-02T07:51:04.750Z,19.50
2017-06-02T07:53:33.133Z,19.40
2017-06-02T07:56:01.489Z,19.50
2017-06-02T07:58:30.590Z,19.80
2017-06-02T08:00:59.012Z,19.80
2017-06-02T08:03:28.159Z,20.10
2017-06-02T08:05:56.477Z,20.00
2017-06-02T08:08:25.593Z,20.20
2017-06-02T08:10:54.295Z,20.20
2017-06-02T08:13:23.406Z,20.50
2017-06-02T08:15:51.893Z,20.40
2017-06-02T08:18:20.329Z,20.70
2017-06-02T08:20:48.681Z,20.70
2017-06-02T08:23:17.785Z,20.80
2017-06-02T08:25:46.890Z,20.90
2017-06-02T08:28:15.215Z,20.90
2017-06-02T08:30:43.556Z,21.10
2017-06-02T08:33:12.670Z,21.30
2017-06-02T08:35:41.001Z,21.20
2017-06-02T08:38:09.336Z,21.50
2017-06-02T08:40:37.683Z,21.50
2017-06-02T08:43:06.785Z,21.80
2017-06-02T08:45:35.133Z,21.80
2017-06-02T08:48:04.284Z,21.90
2017-06-02T08:50:32.629Z,21.80
2017-06-02T08:53:01.757Z,22.20
2017-06-02T08:55:30.874Z,22.20
2017-06-02T08:57:59.196Z,22.10
2017-06-02T09:00:27.543Z,22.20
2017-06-02T09:02:56.624Z,22.40
2017-06-02T09:05:25.741Z,22.50
2017-06-02T09:07:54.825Z,22.40
2017-06-02T09:10:23.937Z,22.60
2017-06-02T09:12:53.045Z,22.70
2017-06-02T09:15:21.357Z,22.60
2017-06-02T09:17:50.468Z,22.80
2017-06-02T09:20:19.564Z,22.90
2017-06-02T09:22:48.681Z,23.10
2017-06-02T09:25:17.142Z,23.10
2017-06-02T09:27:45.464Z,23.10
2017-06-02T09:30:14.551Z,22.80
2017-06-02T09:32:43.634Z,22.90
2017-06-02T09:35:11.961Z,22.80
2017-06-02T09:37:41.067Z,23.20
2017-06-02T09:40:09.384Z,23.20
2017-06-02T09:42:38.499Z,23.70
2017-06-02T09:45:07.569Z,23.70
2017-06-02T09:47:35.927Z,23.70
2017-06-02T09:50:05.029Z,24.20
2017-06-02T09:52:34.148Z,24.40
2017-06-02T09:55:02.469Z,24.30
2017-06-02T09:57:31.578Z,24.40
2017-06-02T09:59:59.916Z,24.40
2017-06-02T10:02:29.038Z,24.20
2017-06-02T10:04:57.359Z,24.10
2017-06-02T10:07:26.477Z,24.30
2017-06-02T10:09:54.793Z,24.30
2017-06-02T10:12:23.882Z,24.30
2017-06-02T10:14:53.001Z,24.80
2017-06-02T10:17:21.367Z,24.70
2017-06-02T10:19:49.682Z,25.20
2017-06-02T10:22:18.886Z,25.60
2017-06-02T10:24:47.240Z,25.50
2017-06-02T10:27:16.321Z,24.90
2017-06-02T10:29:45.426Z,24.80
2017-06-02T10:32:14.591Z,24.90
2017-06-02T10:34:42.877Z,24.80
2017-06-02T10:37:11.991Z,25.30
2017-06-02T10:39:41.088Z,26.00
2017-06-02T10:42:10.193Z,25.90
2017-06-02T10:44:38.508Z,25.90
2017-06-02T10:47:06.859Z,26.10
2017-06-02T10:49:35.930Z,26.50
2017-06-02T10:52:05.010Z,26.20
2017-06-02T10:54:34.158Z,26.10
2017-06-02T10:57:02.485Z,26.10
2017-06-02T10:59:31.693Z,27.10
2017-06-02T11:02:00.918Z,27.20
2017-06-02T11:04:29.271Z,27.20
2017-06-02T11:06:58.382Z,27.00
2017-06-02T11:09:26.696Z,26.90
2017-06-02T11:11:56.678Z,27.20
2017-06-02T11:14:25.189Z,27.10
2017-06-02T11:16:54.353Z,27.40
2017-06-02T11:19:23.464Z,27.60
2017-06-02T11:21:52.609Z,27.20
2017-06-02T11:24:21.021Z,27.20
2017-06-02T11:26:50.173Z,27.60
2017-06-02T11:29:19.887Z,27.90
2017-06-02T11:31:49.046Z,27.00
2017-06-02T11:34:18.150Z,27.00
2017-06-02T11:36:46.519Z,27.00
2017-06-02T11:39:15.669Z,26.30
2017-06-02T11:41:44.808Z,26.20
2017-06-02T11:44:13.930Z,26.60
2017-06-02T11:46:43.037Z,27.50
2017-06-02T11:49:12.282Z,27.50
2017-06-02T11:51:41.409Z,28.60
2017-06-02T11:54:10.588Z,28.90
2017-06-02T11:56:39.739Z,29.20
2017-06-02T11:59:08.122Z,29.20
2017-06-02T12:01:37.378Z,29.40
2017-06-02T12:04:06.537Z,30.30
2017-06-02T12:06:34.923Z,30.20
2017-06-02T12:09:03.244Z,31.00
2017-06-02T12:11:32.425Z,31.20
2017-06-02T12:14:01.595Z,30.50
2017-06-02T12:16:30.767Z,29.90
2017-06-02T12:18:59.136Z,29.80
2017-06-02T12:21:28.265Z,28.80
2017-06-02T12:23:56.653Z,28.80
2017-06-02T12:26:25.091Z,29.10
2017-06-02T12:28:54.614Z,28.40
2017-06-02T12:31:23.715Z,28.90
2017-06-02T12:33:52.037Z,28.80
2017-06-02T12:36:20.404Z,28.90
2017-06-02T12:38:48.712Z,29.40
2017-06-02T12:41:17.882Z,28.50
2017-06-02T12:43:47.006Z,29.80
2017-06-02T12:46:16.123Z,30.00
2017-06-02T12:48:44.448Z,30.00
2017-06-02T12:51:13.537Z,30.20
2017-06-02T12:53:42.648Z,31.40
2017-06-02T12:56:11.016Z,31.30
2017-06-02T12:58:39.367Z,31.80
2017-06-02T13:01:08.440Z,31.20
2017-06-02T13:03:37.569Z,32.10
2017-06-02T13:06:06.684Z,32.70
2017-06-02T13:08:35.791Z,32.30
2017-06-02T13:11:04.901Z,31.30
2017-06-02T13:13:33.225Z,31.20
2017-06-02T13:16:02.341Z,30.60
2017-06-02T13:18:30.658Z,30.50
2017-06-02T13:20:59.017Z,31.40
2017-06-02T13:23:28.108Z,32.10
2017-06-02T13:25:56.695Z,31.90
2017-06-02T13:28:25.899Z,31.80
2017-06-02T13:30:54.988Z,31.40
2017-06-02T13:33:24.069Z,32.00
2017-06-02T13:35:53.171Z,32.70
2017-06-02T13:38:22.252Z,31.70
2017-06-02T13:40:51.434Z,31.60
2017-06-02T13:43:21.604Z,31.60
2017-06-02T13:45:50.843Z,30.50
2017-06-02T13:48:19.158Z,30.50
2017-06-02T13:50:48.233Z,29.80
2017-06-02T13:53:17.349Z,30.10
2017-06-02T13:55:46.424Z,31.00
2017-06-02T13:58:14.781Z,30.90
2017-06-02T14:00:43.078Z,31.20
2017-06-02T14:03:12.150Z,32.90
2017-06-02T14:05:41.253Z,33.20
2017-06-02T14:08:10.368Z,32.10
2017-06-02T14:10:39.474Z,32.30
2017-06-02T14:13:08.605Z,33.00
2017-06-02T14:15:36.952Z,33.00
2017-06-02T14:18:06.039Z,32.80
2017-06-02T14:20:34.376Z,32.70
2017-06-02T14:23:03.467Z,32.30
2017-06-02T14:25:32.587Z,32.10
2017-06-02T14:28:00.916Z,32.00
2017-06-02T14:30:29.601Z,31.00
2017-06-02T14:32:58.684Z,29.40
2017-06-02T14:35:27.003Z,29.30
2017-06-02T14:37:55.364Z,28.90
2017-06-02T14:40:24.457Z,28.00
2017-06-02T14:42:53.577Z,28.00
2017-06-02T14:45:21.919Z,27.90
2017-06-02T14:47:51.064Z,27.70
2017-06-02T14:50:20.159Z,27.80
2017-06-02T14:52:49.245Z,27.90
2017-06-02T14:55:17.942Z,27.80
2017-06-02T14:57:47.046Z,27.70
2017-06-02T15:00:15.411Z,27.60
2017-06-02T15:02:44.572Z,27.20
2017-06-02T15:05:12.920Z,27.20
2017-06-02T15:07:42.233Z,27.10
2017-06-02T15:10:11.390Z,27.10
2017-06-02T15:12:40.521Z,27.00
2017-06-02T15:15:09.724Z,27.10
2017-06-02T15:17:38.058Z,27.00
2017-06-02T15:20:06.425Z,27.10
2017-06-02T15:22:35.588Z,27.10
2017-06-02T15:25:04.745Z,26.90
2017-06-02T15:27:33.893Z,26.90
2017-06-02T15:30:02.281Z,26.80
2017-06-02T15:32:31.610Z,27.20
2017-06-02T15:35:00.776Z,27.50
2017-06-02T15:37:30.164Z,27.30
2017-06-02T15:39:59.326Z,27.30
2017-06-02T15:42:28.559Z,27.20
2017-06-02T15:44:56.987Z,27.10
2017-06-02T15:47:25.343Z,27.10
2017-06-02T15:49:54.506Z,26.80
2017-06-02T15:52:24.297Z,26.80
2017-06-02T15:54:52.720Z,26.70
2017-06-02T15:57:21.913Z,27.40
2017-06-02T15:59:50.267Z,27.30
2017-06-02T16:02:19.404Z,27.40
2017-06-02T16:04:48.533Z,27.30
2017-06-02T16:07:17.718Z,26.70
2017-06-02T16:09:46.138Z,26.70
2017-06-02T16:12:15.210Z,26.50
2017-06-02T16:14:44.318Z,26.50
2017-06-02T16:17:13.417Z,26.40
2017-06-02T16:19:43.923Z,26.30
2017-06-02T16:22:13.089Z,26.20
2017-06-02T16:24:42.244Z,25.90
2017-06-02T16:27:11.451Z,25.90
2017-06-02T16:29:39.800Z,25.90
2017-06-02T16:32:09.786Z,25.90
2017-06-02T16:34:38.908Z,25.80
2017-06-02T16:37:08.078Z,26.00
2017-06-02T16:39:37.201Z,25.90
2017-06-02T16:42:06.372Z,25.80
2017-06-02T16:44:36.390Z,25.70
2017-06-02T16:47:05.535Z,25.60
2017-06-02T16:49:33.887Z,25.50
2017-06-02T16:52:03.013Z,25.80
2017-06-02T16:54:31.655Z,25.70
2017-06-02T16:56:59.988Z,26.10
2017-06-02T16:59:29.307Z,26.40
2017-06-02T17:01:58.447Z,26.30
2017-06-02T17:04:26.820Z,26.30
2017-06-02T17:06:55.185Z,26.30
2017-06-02T17:09:23.538Z,26.20
2017-06-02T17:11:52.663Z,26.20
2017-06-02T17:14:21.059Z,26.10
2017-06-02T17:16:49.457Z,25.90
2017-06-02T17:19:18.567Z,25.50
2017-06-02T17:21:48.442Z,25.50
2017-06-02T17:24:17.645Z,25.50
2017-06-02T17:26:46.705Z,25.50
2017-06-02T17:29:16.275Z,25.50
2017-06-02T17:31:45.450Z,25.50
2017-06-02T17:34:14.697Z,25.60
2017-06-02T17:36:43.825Z,25.60
2017-06-02T17:39:12.893Z,25.60
2017-06-02T17:41:42.067Z,25.50
2017-06-02T17:44:11.190Z,25.40
2017-06-02T17:46:40.389Z,25.30
2017-06-02T17:49:08.761Z,25.40
2017-06-02T17:51:37.863Z,25.20
2017-06-02T17:54:06.257Z,25.20
2017-06-02T17:56:35.362Z,25.10
2017-06-02T17:59:04.522Z,25.10
2017-06-02T18:01:35.171Z,25.00
2017-06-02T18:04:03.609Z,24.90
2017-06-02T18:06:32.724Z,24.70
2017-06-02T18:09:01.948Z,24.60
2017-06-02T18:11:31.811Z,24.40
2017-06-02T18:14:00.936Z,24.30
2017-06-02T18:16:30.410Z,24.20
2017-06-02T18:18:58.789Z,24.20
2017-06-02T18:21:28.047Z,23.90
2017-06-02T18:23:57.279Z,23.70
2017-06-02T18:26:25.615Z,23.70
2017-06-02T18:28:54.754Z,23.50
2017-06-02T18:31:23.861Z,23.30
2017-06-02T18:33:52.925Z,23.30
2017-06-02T18:36:21.272Z,23.30
2017-06-02T18:38:49.655Z,23.20
2017-06-02T18:41:18.808Z,22.90
2017-06-02T18:43:47.952Z,22.80
2017-06-02T18:46:17.118Z,22.70
2017-06-02T18:48:45.502Z,22.70
2017-06-02T18:51:14.629Z,22.50
2017-06-02T18:53:43.958Z,22.40
2017-06-02T18:56:12.285Z,22.30
2017-06-02T18:58:40.628Z,22.40
2017-06-02T19:01:09.784Z,22.30
2017-06-02T19:03:38.161Z,22.20
2017-06-02T19:06:07.277Z,22.00
2017-06-02T19:08:35.604Z,22.00
2017-06-02T19:11:04.734Z,21.90
2017-06-02T19:13:33.061Z,21.80
2017-06-02T19:16:02.129Z,21.70
2017-06-02T19:18:30.484Z,21.70
2017-06-02T19:20:58.858Z,21.60
2017-06-02T19:23:27.928Z,21.50
2017-06-02T19:25:56.281Z,21.40
2017-06-02T19:28:25.373Z,21.30
2017-06-02T19:30:54.467Z,21.30
2017-06-02T19:33:23.579Z,21.20
2017-06-02T19:35:51.901Z,21.20
2017-06-02T19:38:21.019Z,21.00
2017-06-02T19:40:49.335Z,21.00
2017-06-02T19:43:18.458Z,20.90
2017-06-02T19:45:47.600Z,20.70
2017-06-02T19:48:17.108Z,20.70
2017-06-02T19:50:46.209Z,20.70
2017-06-02T19:53:15.329Z,20.60
2017-06-02T19:55:44.443Z,20.50
2017-06-02T19:58:13.539Z,20.40
2017-06-02T20:00:41.878Z,20.40
2017-06-02T20:03:10.975Z,20.20
2017-06-02T20:05:39.662Z,20.20
2017-06-02T20:08:08.757Z,20.30
2017-06-02T20:10:37.064Z,20.20
2017-06-02T20:13:06.177Z,20.30
2017-06-02T20:15:35.278Z,20.20
2017-06-02T20:18:03.625Z,20.10
2017-06-02T20:20:32.006Z,20.20
2017-06-02T20:23:00.325Z,20.20
2017-06-02T20:25:29.490Z,20.10
2017-06-02T20:27:58.583Z,20.00
2017-06-02T20:30:27.709Z,19.90
2017-06-02T20:32:56.830Z,19.90
2017-06-02T20:35:25.153Z,19.80
2017-06-02T20:37:54.266Z,19.80
2017-06-02T20:40:23.376Z,19.90
2017-06-02T20:42:52.479Z,19.80
2017-06-02T20:45:21.601Z,19.70
2017-06-02T20:47:50.733Z,19.60
2017-06-02T20:50:19.047Z,19.50
2017-06-02T20:52:48.152Z,19.40
2017-06-02T20:55:16.498Z,19.40
2017-06-02T20:57:44.897Z,19.40
2017-06-02T21:00:13.994Z,19.40
2017-06-02T21:02:43.125Z,19.30
2017-06-02T21:05:11.493Z,19.30
2017-06-02T21:07:39.855Z,19.40
2017-06-02T21:10:08.950Z,19.50
2017-06-02T21:12:38.036Z,19.60
2017-06-02T21:15:07.186Z,19.70
2017-06-02T21:17:36.287Z,19.70
2017-06-02T21:20:05.407Z,19.80
2017-06-02T21:22:34.621Z,19.90
2017-06-02T21:25:03.934Z,19.90
2017-06-02T21:27:32.997Z,19.90
2017-06-02T21:30:01.366Z,19.90
2017-06-02T21:32:30.457Z,19.90
2017-06-02T21:34:59.569Z,19.90
2017-06-02T21:37:28.675Z,19.80
2017-06-02T21:39:57.028Z,19.80
2017-06-02T21:42:26.160Z,19.80
2017-06-02T21:44:55.276Z,19.80
2017-06-02T21:47:23.597Z,19.70
2017-06-02T21:49:52.734Z,19.70
2017-06-02T21:52:21.820Z,19.70
2017-06-02T21:54:50.168Z,19.60
2017-06-02T21:57:19.265Z,19.70
2017-06-02T21:59:47.623Z,19.60
2017-06-02T22:02:16.702Z,19.60
2017-06-02T22:04:45.810Z,19.50
2017-06-02T22:07:14.889Z,19.40
2017-06-02T22:09:43.976Z,19.30
2017-06-02T22:12:13.089Z,19.20
2017-06-02T22:14:41.402Z,19.20
2017-06-02T22:17:09.747Z,19.20
2017-06-02T22:19:38.065Z,19.10
2017-06-02T22:22:07.174Z,18.90
2017-06-02T22:24:36.269Z,18.80
2017-06-02T22:27:04.628Z,18.80
2017-06-02T22:29:33.728Z,18.70
2017-06-02T22:32:02.832Z,18.70
2017-06-02T22:34:31.178Z,18.60
2017-06-02T22:36:59.494Z,18.60
2017-06-02T22:39:57.656Z,18.50
2017-06-02T22:42:25.966Z,18.60
2017-06-02T22:44:54.304Z,18.50
2017-06-02T22:47:22.614Z,18.50
2017-06-02T22:49:50.952Z,18.50
2017-06-02T22:52:19.275Z,18.50
2017-06-02T22:54:47.625Z,18.50
2017-06-02T22:57:15.960Z,18.50
2017-06-02T22:59:44.279Z,18.50
2017-06-02T23:02:13.392Z,18.50
2017-06-02T23:04:41.718Z,18.50
2017-06-02T23:07:10.049Z,18.50
2017-06-02T23:09:38.409Z,18.50
2017-06-02T23:12:07.483Z,18.40
2017-06-02T23:14:35.829Z,18.40
2017-06-02T23:17:04.142Z,18.40
2017-06-02T23:19:32.463Z,18.40
2017-06-02T23:22:00.777Z,18.40
2017-06-02T23:24:29.115Z,18.40
2017-06-02T23:26:57.429Z,18.50
2017-06-02T23:29:25.840Z,18.50
2017-06-02T23:31:54.953Z,18.50
2017-06-02T23:34:23.271Z,18.40
2017-06-02T23:36:51.695Z,18.50
2017-06-02T23:39:20.017Z,18.60
2017-06-02T23:41:48.326Z,18.60
2017-06-02T23:44:16.662Z,18.60
2017-06-02T23:46:44.976Z,18.60
2017-06-02T23:49:13.316Z,18.60
2017-06-02T23:51:41.629Z,18.60
2017-06-02T23:54:09.941Z,18.60
2017-06-02T23:56:38.285Z,18.60
2017-06-02T23:59:06.592Z,18.60
